Data for 04/12/2018

Time Sea-Level Adjusted Pressure Absolute Pressure Temperature Relative Humidity Dew Point   
(mb) (inHg) (mb) (inHg) (C) (F) (%) (C) (F)
00:05 1007 29.74 836 24.69 5.7 42.3 65 -0.3 31.5
00:10 1007 29.74 836 24.69 5.7 42.2 65 -0.3 31.4
00:15 1007 29.74 836 24.69 5.7 42.2 65 -0.3 31.4
00:20 1006 29.71 836 24.69 5.6 42 66 -0.3 31.4
00:25 1006 29.71 836 24.69 5.5 41.9 66 -0.3 31.4
00:30 1006 29.71 836 24.69 5.5 42 65 -0.5 31.1
00:35 1006 29.71 835 24.66 5.6 42 65 -0.5 31.1
00:40 1006 29.71 835 24.66 5.6 42.1 65 -0.5 31.1
00:45 1006 29.71 835 24.66 5.7 42.2 64 -0.6 31
00:50 1006 29.71 835 24.66 5.8 42.4 63 -0.7 30.8
00:55 1006 29.71 835 24.66 5.8 42.5 63 -0.7 30.7
01:00 1006 29.71 835 24.66 5.8 42.5 63 -0.7 30.7
01:05 1006 29.71 835 24.66 5.8 42.5 62 -0.8 30.5
01:10 1005 29.68 835 24.66 5.8 42.5 61 -1 30.1
01:15 1005 29.68 835 24.66 5.9 42.6 61 -1 30.3
01:20 1005 29.68 835 24.66 5.9 42.5 62 -0.9 30.5
01:25 1005 29.68 835 24.66 5.8 42.4 61 -1 30.1
01:30 1005 29.68 835 24.66 5.7 42.3 62 -0.9 30.4
01:35 1005 29.68 835 24.66 5.7 42.2 62 -1 30.3
01:40 1005 29.68 835 24.66 5.6 42 63 -0.9 30.3
01:45 1005 29.68 835 24.66 5.5 41.9 63 -0.9 30.4
01:50 1005 29.68 834 24.63 5.5 41.9 63 -1 30.2
01:55 1005 29.68 834 24.63 5.5 41.9 63 -1 30.2
02:00 1005 29.68 834 24.63 5.5 41.9 63 -1.1 30.1
02:05 1005 29.68 834 24.63 5.5 41.9 62 -1.2 29.8
02:10 1005 29.68 834 24.63 5.6 42 62 -1.2 29.8
02:15 1005 29.68 834 24.63 5.5 42 62 -1.2 29.9
02:20 1005 29.68 834 24.63 5.5 41.9 62 -1.1 30
02:25 1005 29.68 834 24.63 5.5 41.9 61 -1.3 29.6
02:30 1005 29.68 834 24.63 5.7 42.3 60 -1.4 29.4
02:35 1005 29.68 834 24.63 5.8 42.4 61 -1.2 29.8
02:40 1005 29.68 834 24.63 5.7 42.3 61 -1.2 29.9
02:45 1004 29.65 834 24.63 5.6 42.1 62 -1.2 29.9
02:50 1004 29.65 833 24.6 5.5 41.9 62 -1.2 29.9
02:55 1004 29.65 833 24.6 5.5 41.9 62 -1.3 29.7
03:00 1004 29.65 833 24.6 5.5 41.9 62 -1.2 29.9
03:05 1004 29.65 833 24.6 5.7 42.2 61 -1.2 29.9
03:10 1004 29.65 833 24.6 5.7 42.3 62 -1 30.3
03:15 1004 29.65 833 24.6 5.7 42.3 63 -0.8 30.6
03:20 1004 29.65 833 24.6 5.7 42.2 64 -0.6 30.9
03:25 1004 29.65 833 24.6 5.5 41.9 65 -0.5 31.1
03:30 1004 29.65 833 24.6 5.4 41.7 66 -0.5 31.1
03:35 1004 29.65 833 24.6 5.3 41.5 65 -0.6 30.8
03:40 1004 29.65 833 24.6 5.3 41.6 66 -0.5 31
03:45 1004 29.65 833 24.6 5.2 41.4 65 -0.7 30.7
03:50 1004 29.65 833 24.6 5.4 41.7 65 -0.7 30.8
03:55 1003 29.62 833 24.6 5.4 41.7 65 -0.7 30.8
04:00 1003 29.62 833 24.6 5.4 41.6 65 -0.7 30.8
04:05 1003 29.62 833 24.6 5.4 41.7 65 -0.7 30.8
04:10 1003 29.62 832 24.57 5.3 41.5 66 -0.6 31
04:15 1003 29.62 832 24.57 5.2 41.3 66 -0.6 30.9
04:20 1003 29.62 832 24.57 5.2 41.4 66 -0.7 30.8
04:25 1003 29.62 832 24.57 5.3 41.5 65 -0.7 30.7
04:30 1003 29.62 832 24.57 5.3 41.5 65 -0.7 30.7
04:35 1003 29.62 832 24.57 5.3 41.5 66 -0.6 30.9
04:40 1003 29.62 832 24.57 5.2 41.3 67 -0.5 31.1
04:45 1003 29.62 832 24.57 4.9 40.9 70 0 32
04:50 1003 29.62 832 24.57 4.5 40.1 73 0 32
04:55 1003 29.62 832 24.57 4.4 39.9 74 0.1 32.1
05:00 1003 29.62 832 24.57 4.3 39.8 75 0.3 32.5
05:05 1003 29.62 832 24.57 4.2 39.6 75 0.2 32.4
05:10 1003 29.62 832 24.57 4.2 39.6 76 0.3 32.6
05:15 1003 29.62 832 24.57 4.2 39.6 75 0.3 32.5
05:20 1003 29.62 832 24.57 4.2 39.6 76 0.4 32.7
05:25 1003 29.62 832 24.57 4.2 39.5 76 0.4 32.6
05:30 1003 29.62 832 24.57 4.1 39.5 77 0.4 32.8
05:35 1003 29.62 832 24.57 4.1 39.3 77 0.3 32.6
05:40 1003 29.62 832 24.57 4.1 39.4 77 0.4 32.7
05:45 1002 29.59 832 24.57 4.1 39.3 77 0.4 32.8
05:50 1002 29.59 832 24.57 4 39.3 77 0.3 32.6
05:55 1002 29.59 831 24.54 4.2 39.5 76 0.2 32.4
06:00 1002 29.59 832 24.57 4.3 39.7 75 0.3 32.5
06:05 1002 29.59 831 24.54 4.2 39.6 76 0.4 32.8
06:10 1002 29.59 831 24.54 4.2 39.5 77 0.4 32.8
06:15 1002 29.59 831 24.54 4.1 39.4 77 0.4 32.7
06:20 1002 29.59 831 24.54 4.1 39.4 78 0.5 32.9
06:25 1002 29.59 831 24.54 4 39.2 78 0.5 32.9
06:30 1002 29.59 831 24.54 4 39.2 78 0.5 32.9
06:35 1002 29.59 831 24.54 3.9 39.1 78 0.5 32.9
06:40 1002 29.59 831 24.54 3.9 39 78 0.5 32.9
06:45 1002 29.59 831 24.54 3.9 39 79 0.5 33
06:50 1002 29.59 831 24.54 3.9 39 78 0.5 32.9
06:55 1002 29.59 831 24.54 3.9 39 79 0.5 32.9
07:00 1002 29.59 831 24.54 3.9 39 79 0.5 32.9
07:05 1002 29.59 831 24.54 3.8 38.9 79 0.5 32.8
07:10 1002 29.59 831 24.54 3.8 38.8 79 0.4 32.7
07:15 1002 29.59 831 24.54 3.8 38.8 79 0.4 32.8
07:20 1002 29.59 831 24.54 3.7 38.7 79 0.4 32.7
07:25 1002 29.59 831 24.54 3.7 38.6 79 0.3 32.5
07:30 1002 29.59 831 24.54 3.6 38.5 80 0.5 32.9
07:35 1002 29.59 831 24.54 3.5 38.2 81 0.4 32.8
07:40 1002 29.59 831 24.54 3.4 38.1 80 0.2 32.4
07:45 1002 29.59 831 24.54 3.4 38 79 0.1 32.2
07:50 1002 29.59 831 24.54 3.3 37.9 79 -0.1 31.9
07:55 1002 29.59 831 24.54 3.2 37.8 79 -0.1 31.8
08:00 1002 29.59 831 24.54 3.1 37.7 78 -0.3 31.5
08:05 1002 29.59 831 24.54 3 37.5 79 -0.2 31.6
08:10 1002 29.59 831 24.54 2.9 37.2 80 -0.2 31.7
08:15 1002 29.59 831 24.54 2.8 37 80 -0.3 31.4
08:20 1002 29.59 831 24.54 2.7 36.9 81 -0.3 31.5
08:25 1002 29.59 831 24.54 2.6 36.7 82 -0.2 31.6
08:30 1002 29.59 831 24.54 2.6 36.6 82 -0.2 31.6
08:35 1002 29.59 831 24.54 2.4 36.3 83 -0.2 31.6
08:40 1002 29.59 831 24.54 2.2 36 84 -0.3 31.5
08:45 1002 29.59 831 24.54 2.1 35.7 84 -0.4 31.3
08:50 1002 29.59 831 24.54 2.1 35.7 84 -0.3 31.5
08:55 1002 29.59 831 24.54 2 35.6 84 -0.4 31.3
09:00 1002 29.59 831 24.54 2 35.7 84 -0.4 31.3
09:05 1002 29.59 831 24.54 2 35.6 85 -0.3 31.4
09:10 1002 29.59 831 24.54 1.9 35.3 86 -0.3 31.5
09:15 1002 29.59 831 24.54 1.7 35 86 -0.4 31.3
09:20 1002 29.59 831 24.54 1.5 34.7 87 -0.5 31.2
09:25 1002 29.59 831 24.54 1.2 34.2 88 -0.6 31
09:30 1002 29.59 831 24.54 1 33.8 89 -0.6 30.9
09:35 1002 29.59 831 24.54 0.8 33.5 90 -0.7 30.8
09:40 1002 29.59 831 24.54 0.7 33.2 91 -0.7 30.8
09:45 1002 29.59 831 24.54 0.5 33 91 -0.7 30.7
09:50 1002 29.59 831 24.54 0.5 32.9 91 -0.8 30.6
09:55 1002 29.59 831 24.54 0.5 33 91 -0.7 30.7
10:00 1002 29.59 831 24.54 0.6 33 91 -0.7 30.7
10:05 1002 29.59 831 24.54 0.5 32.9 91 -0.7 30.7
10:10 1001 29.56 831 24.54 0.5 33 91 -0.7 30.7
10:15 1001 29.56 831 24.54 0.6 33.1 91 -0.6 30.9
10:20 1001 29.56 831 24.54 0.8 33.4 90 -0.6 30.9
10:25 1001 29.56 831 24.54 1 33.7 89 -0.6 30.9
10:30 1002 29.59 831 24.54 1.1 34 88 -0.7 30.8
10:35 1001 29.56 831 24.54 1.2 34.1 88 -0.6 30.9
10:40 1001 29.56 831 24.54 1.2 34.2 88 -0.6 30.9
10:45 1001 29.56 831 24.54 1.3 34.4 86 -0.7 30.7
10:50 1001 29.56 831 24.54 1.4 34.5 86 -0.7 30.7
10:55 1001 29.56 831 24.54 1.4 34.5 85 -0.9 30.4
11:00 1001 29.56 831 24.54 1.4 34.4 86 -0.8 30.6
11:05 1001 29.56 831 24.54 1.3 34.4 86 -0.7 30.7
11:10 1001 29.56 831 24.54 1.3 34.3 86 -0.7 30.7
11:15 1002 29.59 831 24.54 1.2 34.2 86 -0.8 30.6
11:20 1002 29.59 831 24.54 1.1 34.1 87 -0.8 30.6
11:25 1002 29.59 831 24.54 1.1 34 87 -0.8 30.5
11:30 1002 29.59 831 24.54 1 33.8 88 -0.8 30.5
11:35 1002 29.59 831 24.54 0.9 33.5 89 -0.8 30.5
11:40 1002 29.59 831 24.54 0.7 33.2 90 -0.8 30.5
11:45 1002 29.59 831 24.54 0.5 32.8 91 -0.9 30.4
11:50 1002 29.59 831 24.54 0.3 32.6 92 -0.9 30.4
11:55 1002 29.59 831 24.54 0.2 32.4 92 -0.9 30.4
12:00 1002 29.59 831 24.54 0.2 32.4 92 -0.9 30.4
12:05 1002 29.59 831 24.54 0.2 32.4 93 -0.8 30.5
12:10 1002 29.59 831 24.54 0.3 32.5 93 -0.8 30.6
12:15 1002 29.59 831 24.54 0.3 32.5 93 -0.8 30.6
12:20 1002 29.59 831 24.54 0.4 32.6 93 -0.7 30.8
12:25 1002 29.59 831 24.54 0.4 32.7 93 -0.6 30.8
12:30 1002 29.59 831 24.54 0.5 32.9 93 -0.5 31.1
12:35 1002 29.59 831 24.54 0.6 33 93 -0.5 31.1
12:40 1002 29.59 831 24.54 0.6 33 92 -0.5 31.1
12:45 1002 29.59 831 24.54 0.7 33.2 92 -0.5 31.2
12:50 1002 29.59 831 24.54 0.8 33.4 92 -0.3 31.4
12:55 1002 29.59 831 24.54 0.9 33.5 92 -0.3 31.5
13:00 1002 29.59 831 24.54 1 33.8 92 -0.1 31.8
13:05 1002 29.59 831 24.54 1 33.9 92 -0.1 31.7
13:10 1002 29.59 831 24.54 1 33.9 92 -0.2 31.7
13:15 1002 29.59 831 24.54 1.2 34.2 91 -0 31.9
13:20 1002 29.59 831 24.54 1.3 34.3 91 -0 32
13:25 1002 29.59 831 24.54 1.5 34.6 91 0.1 32.2
13:30 1002 29.59 831 24.54 1.5 34.7 91 0.2 32.3
13:35 1002 29.59 831 24.54 1.7 35.1 90 0.3 32.5
13:40 1002 29.59 831 24.54 1.7 35.1 90 0.3 32.5
13:45 1002 29.59 831 24.54 1.7 35.1 90 0.2 32.4
13:50 1002 29.59 831 24.54 1.8 35.3 90 0.3 32.6
13:55 1002 29.59 832 24.57 2 35.7 89 0.3 32.6
14:00 1002 29.59 832 24.57 2 35.7 89 0.5 32.9
14:05 1002 29.59 832 24.57 2.3 36.1 90 0.8 33.4
14:10 1003 29.62 832 24.57 2.3 36.1 90 0.8 33.5
14:15 1003 29.62 832 24.57 2.1 35.8 90 0.7 33.2
14:20 1003 29.62 832 24.57 2.3 36.1 90 0.8 33.4
14:25 1003 29.62 832 24.57 2.3 36.1 90 0.8 33.4
14:30 1003 29.62 832 24.57 2.2 36 90 0.7 33.3
14:35 1003 29.62 832 24.57 2 35.7 89 0.4 32.8
14:40 1003 29.62 832 24.57 1.7 35.1 89 0 32.1
14:45 1003 29.62 832 24.57 1.3 34.3 89 -0.3 31.5
14:50 1003 29.62 832 24.57 1 33.8 90 -0.4 31.2
14:55 1003 29.62 833 24.6 0.9 33.6 91 -0.4 31.3
15:00 1004 29.65 833 24.6 1 33.8 91 -0.2 31.6
15:05 1004 29.65 833 24.6 1.2 34.1 92 -0.1 31.9
15:10 1004 29.65 833 24.6 1.3 34.3 91 0 32
15:15 1004 29.65 833 24.6 1.2 34.2 91 -0 32
15:20 1004 29.65 833 24.6 1.2 34.1 91 -0.1 31.8
15:25 1004 29.65 834 24.63 1.1 34 91 -0.2 31.6
15:30 1004 29.65 834 24.63 0.9 33.5 91 -0.4 31.2
15:35 1005 29.68 834 24.63 0.6 33.1 91 -0.6 30.8
15:40 1005 29.68 834 24.63 0.5 32.9 92 -0.7 30.7
15:45 1005 29.68 834 24.63 0.3 32.5 92 -0.9 30.4
15:50 1005 29.68 834 24.63 0.1 32.2 92 -1 30.2
15:55 1005 29.68 834 24.63 0.1 32.1 92 -1 30.2
16:00 1005 29.68 834 24.63 0 32 93 -1 30.1
16:05 1005 29.68 834 24.63 -0 32 93 -1 30.1
16:10 1005 29.68 835 24.66 -0.1 31.9 93 -1.1 30.1
16:15 1005 29.68 835 24.66 -0.1 31.8 93 -1.1 30
16:20 1006 29.71 835 24.66 -0.2 31.7 93 -1.2 29.9
16:25 1006 29.71 835 24.66 -0.3 31.5 93 -1.2 29.8
16:30 1006 29.71 835 24.66 -0.3 31.5 93 -1.2 29.8
16:35 1006 29.71 835 24.66 -0.3 31.5 94 -1.2 29.8
16:40 1006 29.71 836 24.69 -0.3 31.4 94 -1.2 29.8
16:45 1006 29.71 836 24.69 -0.4 31.3 94 -1.3 29.7
16:50 1007 29.74 836 24.69 -0.4 31.3 94 -1.3 29.7
16:55 1007 29.74 836 24.69 -0.4 31.4 94 -1.2 29.8
17:00 1007 29.74 836 24.69 -0.4 31.3 94 -1.3 29.7
17:05 1007 29.74 837 24.72 -0.5 31.2 94 -1.3 29.6
17:10 1008 29.77 837 24.72 -0.5 31.2 94 -1.3 29.6
17:15 1008 29.77 837 24.72 -0.4 31.2 94 -1.3 29.6
17:20 1008 29.77 837 24.72 -0.5 31.2 94 -1.3 29.6
17:25 1008 29.77 837 24.72 -0.4 31.2 94 -1.3 29.7
17:30 1008 29.77 837 24.72 -0.4 31.3 94 -1.3 29.7
17:35 1008 29.77 837 24.72 -0.4 31.2 94 -1.3 29.7
17:40 1008 29.77 837 24.72 -0.5 31.1 94 -1.4 29.6
17:45 1008 29.77 838 24.75 -0.5 31 94 -1.4 29.4
17:50 1008 29.77 838 24.75 -0.6 31 93 -1.5 29.3
17:55 1008 29.77 838 24.75 -0.6 31 94 -1.5 29.3
18:00 1008 29.77 838 24.75 -0.6 31 93 -1.5 29.3
18:05 1009 29.8 838 24.75 -0.6 31 93 -1.5 29.3
18:10 1009 29.8 838 24.75 -0.6 31 93 -1.6 29.2
18:15 1009 29.8 838 24.75 -0.6 31 93 -1.5 29.2
18:20 1009 29.8 838 24.75 -0.6 30.9 93 -1.6 29.1
18:25 1009 29.8 838 24.75 -0.7 30.8 93 -1.7 29
18:30 1009 29.8 838 24.75 -0.6 30.9 93 -1.6 29.1
18:35 1009 29.8 838 24.75 -0.7 30.8 93 -1.7 28.9
18:40 1009 29.8 839 24.78 -0.8 30.6 93 -1.8 28.7
18:45 1009 29.8 839 24.78 -0.9 30.5 93 -1.9 28.6
18:50 1010 29.83 839 24.78 -0.9 30.4 93 -1.9 28.5
18:55 1010 29.83 839 24.78 -0.9 30.4 93 -1.9 28.6
19:00 1010 29.83 839 24.78 -0.9 30.4 93 -1.9 28.5
19:05 1010 29.83 839 24.78 -0.9 30.4 93 -1.9 28.6
19:10 1010 29.83 839 24.78 -0.9 30.4 93 -1.9 28.6
19:15 1010 29.83 839 24.78 -0.9 30.3 93 -1.9 28.5
19:20 1010 29.83 839 24.78 -1 30.2 93 -2 28.4
19:25 1010 29.83 840 24.81 -1 30.1 93 -2 28.4
19:30 1010 29.83 840 24.81 -1.1 30.1 93 -2 28.3
19:35 1011 29.85 840 24.81 -1.1 30.1 93 -2 28.4
19:40 1011 29.85 840 24.81 -1.1 30.1 93 -2 28.4
19:45 1011 29.85 840 24.81 -1.1 30 93 -2 28.4
19:50 1011 29.85 840 24.81 -1.1 30 94 -2 28.4
19:55 1011 29.85 840 24.81 -1.1 30.1 94 -2 28.5
20:00 1011 29.85 840 24.81 -1.1 30 94 -2 28.4
20:05 1011 29.85 840 24.81 -1.1 30.1 94 -2 28.4
20:10 1011 29.85 840 24.81 -1.2 29.9 93 -2.1 28.2
20:15 1011 29.85 840 24.81 -1.3 29.6 94 -2.2 28
20:20 1011 29.85 841 24.83 -1.4 29.5 94 -2.3 27.9
20:25 1011 29.85 841 24.83 -1.4 29.5 94 -2.3 27.9
20:30 1012 29.88 841 24.83 -1.5 29.3 94 -2.4 27.7
20:35 1012 29.88 841 24.83 -1.6 29.2 94 -2.5 27.6
20:40 1012 29.88 841 24.83 -1.6 29 94 -2.5 27.4
20:45 1012 29.88 841 24.83 -1.7 28.9 94 -2.6 27.3
20:50 1012 29.88 841 24.83 -1.7 28.9 94 -2.6 27.3
20:55 1012 29.88 841 24.83 -1.8 28.7 94 -2.7 27.2
21:00 1012 29.88 841 24.83 -1.8 28.7 94 -2.7 27.2
21:05 1012 29.88 841 24.83 -1.8 28.7 94 -2.7 27.1
21:10 1012 29.88 842 24.86 -1.9 28.6 94 -2.7 27.1
21:15 1012 29.88 842 24.86 -1.9 28.6 94 -2.7 27.1
21:20 1013 29.91 842 24.86 -1.9 28.5 94 -2.8 27
21:25 1013 29.91 842 24.86 -2 28.5 94 -2.8 27
21:30 1013 29.91 842 24.86 -1.9 28.5 94 -2.8 27
21:35 1013 29.91 842 24.86 -1.9 28.5 94 -2.8 27
21:40 1013 29.91 842 24.86 -2 28.4 94 -2.8 27
21:45 1013 29.91 842 24.86 -2 28.4 94 -2.9 26.9
21:50 1013 29.91 842 24.86 -2 28.3 94 -2.9 26.8
21:55 1013 29.91 842 24.86 -2.1 28.2 94 -2.9 26.7
22:00 1013 29.91 843 24.89 -2.1 28.2 94 -2.9 26.7
22:05 1013 29.91 843 24.89 -2.1 28.2 94 -3 26.7
22:10 1013 29.91 843 24.89 -2.1 28.1 94 -3 26.6
22:15 1014 29.94 843 24.89 -2.2 28.1 94 -3 26.6
22:20 1014 29.94 843 24.89 -2.2 28.1 94 -3 26.6
22:25 1014 29.94 843 24.89 -2.2 28.1 94 -3 26.6
22:30 1014 29.94 843 24.89 -2.1 28.2 94 -3 26.6
22:35 1014 29.94 843 24.89 -2.1 28.2 94 -3 26.6
22:40 1014 29.94 843 24.89 -2.1 28.1 94 -3 26.6
22:45 1014 29.94 843 24.89 -2.2 28.1 94 -3 26.6
22:50 1014 29.94 843 24.89 -2.1 28.2 94 -3 26.6
22:55 1014 29.94 843 24.89 -2.1 28.1 94 -3 26.6
23:00 1014 29.94 843 24.89 -2.2 28.1 94 -3 26.5
23:05 1014 29.94 843 24.89 -2.2 28.1 94 -3 26.5
23:10 1014 29.94 843 24.89 -2.2 28.1 94 -3 26.5
23:15 1014 29.94 843 24.89 -2.2 28.1 94 -3 26.5
23:20 1014 29.94 843 24.89 -2.2 28.1 94 -3.1 26.5
23:25 1014 29.94 843 24.89 -2.2 28 94 -3.1 26.5
23:30 1014 29.94 843 24.89 -2.2 28.1 94 -3.1 26.5
23:35 1014 29.94 843 24.89 -2.2 28 94 -3.1 26.5
23:40 1014 29.94 844 24.92 -2.2 28.1 94 -3.1 26.5
23:45 1014 29.94 844 24.92 -2.2 28.1 94 -3.1 26.5
23:50 1014 29.94 844 24.92 -2.2 28.1 94 -3.1 26.5
23:55 1014 29.94 844 24.92 -2.2 28.1 94 -3.1 26.5
24:00 1014 29.94 844 24.92 -2.2 28.1 94 -3.1 26.5